Impacts TAF Board INFO
FOR SITUATIONAL AWARENESS. NOT TO BE USED FOR FLIGHT PLANNING PURPOSES.
IDs:

KPHL - Philadelphia Intl, PA, US

Issued at 1120 UTC 11 Dec 2017
Updated at 1712 UTC 11 Dec 2017
Potential Impact None Slight Moderate High
Time1654Z 11/18Z 11/19Z 11/20Z 11/21Z 11/22Z 11/23Z 12/00Z 12/01Z 12/02Z 12/03Z 12/04Z 12/05Z 12/06Z>>
Type OBS PRVL PRVL PRVL PRVL PRVL PRVL PRVL PRVL PRVL PRVL PRVL PRVL PRVL
VIS 10 >6 >6 >6 >6 >6 >6 >6 >6 >6 >6 >6 >6 >6
CIG 48 -- -- -- -- 250 250 250 250 80 80 80 80 80
Cover BKN SCT SCT SCT SCT BKN BKN BKN BKN BKN BKN BKN BKN BKN
FltCat VFR VFR VFR VFR VFR VFR VFR VFR VFR VFR VFR VFR VFR VFR
WX -- -- -- -- -- -- -- -- -- -- -- -- -- --
WDir 290 270 270 270 270 220 220 220 220 140 140 140 140 140
WSpd 9 10 10 10 10 5 5 5 5 4 4 4 4 4
WGst -- -- -- -- -- -- -- -- -- -- -- -- -- --

Raw TAF
KPHL 111120Z 1112/1218 24004KT P6SM SCT060 BKN100
  FM111400 27010KT P6SM SCT070 SCT250
  FM112200 22005KT P6SM BKN250
  FM120200 14004KT P6SM BKN080
  FM121300 17008KT P6SM OVC070
  FM121500 20009KT P6SM OVC035


Raw METAR
KPHL 111654Z 29009KT 10SM BKN048 05/M06 A3005 RMK AO2 SLP176 T00501061
KPHL 111554Z 28012KT 10SM FEW042 FEW055 05/M06 A3008 RMK AO2 SLP186 T00501056
KPHL 111454Z 28009KT 10SM FEW055 04/M05 A3008 RMK AO2 SLP184 T00391050 51009

METAR Board
Radar Display
Forecast Discussion

FOR SITUATIONAL AWARENESS. NOT TO BE USED FOR FLIGHT PLANNING PURPOSES.